Date,TemperatureHighF,TemperatureAvgF,TemperatureLowF,DewpointHighF,DewpointAvgF,DewpointLowF,HumidityHigh,HumidityAvg,HumidityLow,PressureMaxIn,PressureMinIn,WindSpeedMaxMPH,WindSpeedAvgMPH,GustSpeedMaxMPH,PrecipitationSumIn
2013-3-1,61,50,43,-100,-100,-100,0,0,100,0.00,40.00,0,-999,0,0.00
2013-3-2,52,44,33,-100,-100,-100,0,0,100,0.00,40.00,0,-999,0,0.00
2013-3-3,49,40,26,-100,-100,-100,0,0,100,0.00,40.00,0,-999,0,0.00
2013-3-4,52,42,24,-100,-100,-100,0,0,100,0.00,40.00,0,-999,0,0.00
2013-3-5,51,40,30,-100,-100,-100,0,0,100,0.00,40.00,0,-999,0,0.00
2013-3-6,44,41,38,-100,-100,-100,0,0,100,0.00,40.00,0,-999,0,0.00
2013-3-7,50,42,34,-100,-100,-100,0,0,100,0.00,40.00,0,-999,0,0.00
2013-3-8,50,39,30,-100,-100,-100,0,0,100,0.00,40.00,0,-999,0,0.00
2013-3-9,58,37,27,-100,-100,-100,0,0,100,0.00,40.00,0,-999,0,0.00
2013-3-10,45,42,36,-100,-100,-100,0,0,100,0.00,40.00,0,-999,0,0.00
2013-3-11,51,44,39,-100,-100,-100,0,0,100,0.00,40.00,0,-999,0,0.00
2013-3-12,56,48,44,-100,-100,-100,0,0,100,0.00,40.00,0,-999,0,0.00
2013-3-13,57,50,45,-100,-100,-100,0,0,100,0.00,40.00,0,-999,0,0.00
2013-3-14,56,47,42,-100,-100,-100,0,0,100,0.00,40.00,0,-999,0,0.00
2013-3-15,60,48,37,-100,-100,-100,0,0,100,0.00,40.00,0,-999,0,0.00
2013-3-16,50,46,36,-100,-100,-100,0,0,100,0.00,40.00,0,-999,0,0.00
2013-3-17,48,40,31,-100,-100,-100,0,0,100,0.00,40.00,0,-999,0,0.00
2013-3-18,52,41,33,-100,-100,-100,0,0,100,0.00,40.00,0,-999,0,0.00
2013-3-19,55,40,29,-100,-100,-100,0,0,100,0.00,40.00,0,-999,0,0.00
2013-3-20,56,48,33,-100,-100,-100,0,0,100,0.00,40.00,0,-999,0,0.00
2013-3-21,43,36,30,-100,-100,-100,0,0,100,0.00,40.00,0,-999,0,0.00
2013-3-22,45,37,28,-100,-100,-100,0,0,100,0.00,40.00,0,-999,0,0.00
2013-3-23,52,38,28,-100,-100,-100,0,0,100,0.00,40.00,0,-999,0,0.00
2013-3-24,57,38,27,-100,-100,-100,0,0,100,0.00,40.00,0,-999,0,0.00
2013-3-25,63,44,28,-100,-100,-100,0,0,100,0.00,40.00,0,-999,0,0.00
2013-3-26,59,46,32,-100,-100,-100,0,0,100,0.00,40.00,0,-999,0,0.00
2013-3-27,59,46,36,-100,-100,-100,0,0,100,0.00,40.00,0,-999,0,0.00
2013-3-28,61,49,33,-100,-100,-100,0,0,100,0.00,40.00,0,-999,0,0.00
2013-3-29,62,46,34,-100,-100,-100,0,0,100,0.00,40.00,0,-999,0,0.00
2013-3-30,64,50,37,-100,-100,-100,0,0,100,0.00,40.00,0,-999,0,0.00
2013-3-31,64,51,32,-100,-100,-100,0,0,100,0.00,40.00,0,-999,0,0.00